createdAt,value
2022-09-28T00:12:27.475Z,85.6
2022-09-28T00:27:36.960Z,85.7
2022-09-28T00:42:46.860Z,85.8
2022-09-28T00:57:56.358Z,86
2022-09-28T01:13:06.187Z,85.9
2022-09-28T01:28:15.612Z,85.6
2022-09-28T01:43:24.780Z,85.4
2022-09-28T01:58:33.964Z,85.2
2022-09-28T02:13:43.219Z,85.2
2022-09-28T02:28:52.709Z,85.2
2022-09-28T02:44:02.302Z,85.2
2022-09-28T02:59:11.996Z,85.3
2022-09-28T03:14:21.521Z,85.2
2022-09-28T03:29:30.816Z,84.8
2022-09-28T03:44:40.323Z,85.2
2022-09-28T03:59:49.792Z,85.5
2022-09-28T04:14:59.776Z,85.7
2022-09-28T04:30:09.538Z,85.7
2022-09-28T04:45:18.783Z,85.7
2022-09-28T05:00:28.971Z,85.7
2022-09-28T05:15:37.734Z,85.6
2022-09-28T05:30:47.556Z,85.7
2022-09-28T05:45:57.141Z,85.6
2022-09-28T06:01:07.266Z,85.6
2022-09-28T06:16:17.814Z,85.6
2022-09-28T06:31:27.545Z,85.6
2022-09-28T06:46:37.333Z,85.6
2022-09-28T07:01:47.566Z,85.6
2022-09-28T07:17:15.670Z,85.5
2022-09-28T07:32:25.790Z,85.4
2022-09-28T07:47:35.818Z,85.3
2022-09-28T08:02:45.879Z,85.3
2022-09-28T08:18:03.361Z,85.1
2022-09-28T08:33:13.209Z,85
2022-09-28T08:48:22.816Z,85.1
2022-09-28T09:03:32.025Z,85.3
2022-09-28T09:18:41.616Z,85.6
2022-09-28T09:33:50.553Z,85.8
2022-09-28T09:49:01.598Z,85.5
2022-09-28T10:04:11.299Z,85.5
2022-09-28T10:19:20.638Z,85.5
2022-09-28T10:34:31.136Z,85.2
2022-09-28T10:49:47.692Z,85.1
2022-09-28T11:04:59.391Z,84.7
2022-09-28T11:20:08.950Z,84.5
2022-09-28T11:35:18.922Z,84.4
2022-09-28T11:50:28.292Z,83.8
2022-09-28T12:05:37.627Z,84
2022-09-28T12:20:46.998Z,83.8
2022-09-28T12:35:56.942Z,83.6
2022-09-28T12:51:06.641Z,83.1
2022-09-28T13:06:16.305Z,82.8
2022-09-28T13:21:25.865Z,82.9
2022-09-28T13:36:36.571Z,82.7
2022-09-28T13:51:46.371Z,82.7
2022-09-28T14:06:56.388Z,82
2022-09-28T14:22:06.386Z,82.1
2022-09-28T14:37:16.053Z,82.4
2022-09-28T14:52:25.567Z,82.6
2022-09-28T15:07:34.450Z,82.4
2022-09-28T15:22:44.208Z,82
2022-09-28T15:37:53.898Z,82.2
2022-09-28T15:53:03.453Z,82.3
2022-09-28T16:08:13.331Z,82.5
2022-09-28T16:23:22.505Z,82.6
2022-09-28T16:38:32.213Z,83
2022-09-28T16:53:41.885Z,83.1
2022-09-28T17:08:52.002Z,83.4
2022-09-28T17:24:02.364Z,83.7
2022-09-28T17:39:11.887Z,84
2022-09-28T17:54:22.913Z,84.3
2022-09-28T18:09:32.265Z,84
2022-09-28T18:24:41.870Z,84.3
2022-09-28T18:42:41.798Z,83.1
2022-09-28T18:57:52.817Z,85.4
2022-09-28T19:13:02.341Z,85.2
2022-09-28T19:28:11.989Z,84.9
2022-09-28T19:43:21.487Z,84.9
2022-09-28T19:59:01.883Z,84
2022-09-28T20:14:11.617Z,85.2
2022-09-28T20:29:21.137Z,85.2
2022-09-28T20:44:30.574Z,85.2
2022-09-28T20:59:39.612Z,85.3
2022-09-28T21:14:48.866Z,85.3
2022-09-28T21:29:58.107Z,85.4
2022-09-28T21:45:07.580Z,85.4
2022-09-28T22:00:17.052Z,85.4
2022-09-28T22:15:27.502Z,85.3
2022-09-28T22:30:36.746Z,85.3
2022-09-28T22:45:46.766Z,85.5
2022-09-28T23:00:56.041Z,85.3
2022-09-28T23:16:05.626Z,85.5
2022-09-28T23:31:15.374Z,85.7
2022-09-28T23:46:25.415Z,86
